TAX73JC LSZS-EGJJ
Flight info
| Callsign | TAX73JC |
|---|---|
| Flight time | N/A |
| Altitude | 23000 |
| Route | PELAD Z119 PIXOS/N0427F240 N851 ELMUR DCT RIPUS L613 HOC/N0393F180 Y112 RLP R11 MOTAL A3 DOMOD H20 LGL H490 ARGED DCT SENLO G274 BEVAV |
| Aircraft | A320/M-SDE3FGHIRWY/LB1 |
Departure
| Time | 2026-04-26 09:48 |
|---|---|
| Airport | Engadin Airport (LSZS) |
Arrival
| Time | N/A |
|---|---|
| Airport | Jersey Airport (EGJJ) |
| Time | Latitude | Longitude | Altitude | Speed | Heading |
|---|---|---|---|---|---|
| 2026-04-26 09:36 | 46.53042 | 9.87959 | 5615 ft | 0 kts | 297° |
| 2026-04-26 09:44 | 46.53043 | 9.87959 | 5614 ft | 1 kts | 297° |
| 2026-04-26 09:44 | 46.53033 | 9.87932 | 5609 ft | 5 kts | 218° |
| 2026-04-26 09:44 | 46.53014 | 9.87935 | 5614 ft | 3 kts | 161° |
| 2026-04-26 09:44 | 46.52981 | 9.87997 | 5610 ft | 14 kts | 127° |
| 2026-04-26 09:45 | 46.52891 | 9.87963 | 5609 ft | 14 kts | 209° |
| 2026-04-26 09:45 | 46.52812 | 9.87899 | 5609 ft | 12 kts | 209° |
| 2026-04-26 09:45 | 46.52746 | 9.87863 | 5610 ft | 8 kts | 191° |
| 2026-04-26 09:45 | 46.52709 | 9.87832 | 5615 ft | 4 kts | 245° |
| 2026-04-26 09:46 | 46.52741 | 9.87842 | 5612 ft | 8 kts | 40° |
| 2026-04-26 09:46 | 46.52749 | 9.87848 | 5612 ft | 0 kts | 28° |
| 2026-04-26 09:47 | 46.52885 | 9.87958 | 5608 ft | 64 kts | 29° |
| 2026-04-26 09:47 | 46.53513 | 9.88467 | 5614 ft | 140 kts | 29° |
| 2026-04-26 09:47 | 46.54501 | 9.89252 | 6066 ft | 171 kts | 29° |
| 2026-04-26 09:48 | 46.55570 | 9.90134 | 6973 ft | 182 kts | 32° |
| 2026-04-26 09:48 | 46.56639 | 9.91248 | 7345 ft | 196 kts | 38° |
| 2026-04-26 09:48 | 46.57704 | 9.92586 | 7829 ft | 203 kts | 43° |
| 2026-04-26 09:48 | 46.58717 | 9.93994 | 8448 ft | 205 kts | 44° |
| 2026-04-26 09:49 | 46.59741 | 9.95436 | 9096 ft | 205 kts | 44° |
| 2026-04-26 09:49 | 46.60785 | 9.96902 | 9680 ft | 207 kts | 44° |
| 2026-04-26 09:49 | 46.61826 | 9.98363 | 10271 ft | 209 kts | 44° |
| 2026-04-26 09:49 | 46.62874 | 9.99831 | 10739 ft | 213 kts | 44° |
| 2026-04-26 09:50 | 46.63995 | 10.01404 | 10923 ft | 234 kts | 44° |
| 2026-04-26 09:50 | 46.65200 | 10.03098 | 11328 ft | 248 kts | 44° |
| 2026-04-26 09:50 | 46.66568 | 10.04685 | 11910 ft | 256 kts | 26° |
| 2026-04-26 09:50 | 46.68290 | 10.05326 | 12580 ft | 260 kts | 358° |
| 2026-04-26 09:51 | 46.70040 | 10.04723 | 13267 ft | 262 kts | 330° |
| 2026-04-26 09:51 | 46.71403 | 10.02982 | 13962 ft | 264 kts | 302° |
| 2026-04-26 09:51 | 46.72050 | 10.00495 | 14585 ft | 266 kts | 274° |
| 2026-04-26 09:51 | 46.71811 | 9.97835 | 15228 ft | 268 kts | 246° |
| 2026-04-26 09:52 | 46.70842 | 9.95502 | 15859 ft | 271 kts | 236° |
| 2026-04-26 09:52 | 46.68547 | 9.90711 | 16367 ft | 311 kts | 236° |
| 2026-04-26 09:52 | 46.67269 | 9.88043 | 16493 ft | 332 kts | 235° |
| 2026-04-26 09:53 | 46.65912 | 9.85202 | 16621 ft | 352 kts | 236° |
| 2026-04-26 09:53 | 46.64478 | 9.82197 | 16755 ft | 371 kts | 236° |
| 2026-04-26 09:53 | 46.62966 | 9.79037 | 16915 ft | 388 kts | 236° |
| 2026-04-26 09:53 | 46.61528 | 9.75681 | 17343 ft | 394 kts | 244° |
| 2026-04-26 09:54 | 46.60520 | 9.71960 | 17865 ft | 398 kts | 255° |
| 2026-04-26 09:54 | 46.60017 | 9.67994 | 18412 ft | 400 kts | 266° |
| 2026-04-26 09:54 | 46.59989 | 9.63939 | 18916 ft | 403 kts | 272° |
| 2026-04-26 09:54 | 46.60046 | 9.59860 | 19414 ft | 405 kts | 271° |
| 2026-04-26 09:55 | 46.60094 | 9.55748 | 19903 ft | 407 kts | 271° |
| 2026-04-26 09:55 | 46.60132 | 9.51620 | 20368 ft | 410 kts | 271° |
| 2026-04-26 09:55 | 46.60165 | 9.47465 | 20838 ft | 412 kts | 271° |
| 2026-04-26 09:55 | 46.60199 | 9.43320 | 21315 ft | 415 kts | 271° |
| 2026-04-26 09:56 | 46.60235 | 9.39101 | 21752 ft | 417 kts | 271° |
| 2026-04-26 09:56 | 46.60271 | 9.34861 | 22207 ft | 419 kts | 271° |
| 2026-04-26 09:56 | 46.60305 | 9.30618 | 22667 ft | 422 kts | 271° |
| 2026-04-26 09:56 | 46.60339 | 9.26341 | 23121 ft | 424 kts | 271° |
| 2026-04-26 09:57 | 46.60371 | 9.22055 | 23534 ft | 426 kts | 271° |
| 2026-04-26 09:57 | 46.60402 | 9.17731 | 23919 ft | 428 kts | 270° |
| 2026-04-26 09:57 | 46.60432 | 9.13443 | 24283 ft | 430 kts | 271° |
| 2026-04-26 09:57 | 46.60748 | 9.09073 | 24633 ft | 432 kts | 284° |
| 2026-04-26 09:58 | 46.61846 | 9.05005 | 24998 ft | 434 kts | 299° |
| 2026-04-26 09:58 | 46.63671 | 9.01511 | 25345 ft | 438 kts | 315° |
| 2026-04-26 09:58 | 46.66120 | 8.98851 | 25699 ft | 442 kts | 330° |
| 2026-04-26 09:58 | 46.68969 | 8.97277 | 26023 ft | 447 kts | 346° |
| 2026-04-26 09:59 | 46.72061 | 8.96691 | 26357 ft | 451 kts | 353° |
| 2026-04-26 09:59 | 46.75195 | 8.96261 | 26656 ft | 453 kts | 353° |
| 2026-04-26 09:59 | 46.78348 | 8.95844 | 26965 ft | 455 kts | 353° |
| 2026-04-26 09:59 | 46.81505 | 8.95436 | 27293 ft | 457 kts | 353° |
| 2026-04-26 10:00 | 46.84684 | 8.95024 | 27578 ft | 459 kts | 353° |
| 2026-04-26 10:00 | 46.87873 | 8.94601 | 27898 ft | 461 kts | 353° |
| 2026-04-26 10:00 | 46.91078 | 8.94166 | 28191 ft | 463 kts | 352° |
| 2026-04-26 10:00 | 46.94281 | 8.93722 | 28574 ft | 463 kts | 352° |
| 2026-04-26 10:01 | 46.97485 | 8.93276 | 29021 ft | 461 kts | 352° |
| 2026-04-26 10:01 | 47.00681 | 8.92838 | 29480 ft | 460 kts | 352° |
| 2026-04-26 10:01 | 47.03857 | 8.92404 | 29917 ft | 459 kts | 352° |
| 2026-04-26 10:01 | 47.07031 | 8.91901 | 30319 ft | 457 kts | 347° |
| 2026-04-26 10:02 | 47.10072 | 8.90651 | 30662 ft | 452 kts | 335° |
| 2026-04-26 10:02 | 47.12848 | 8.88572 | 30973 ft | 447 kts | 324° |
| 2026-04-26 10:02 | 47.15281 | 8.85775 | 31299 ft | 442 kts | 313° |
| 2026-04-26 10:02 | 47.17277 | 8.82370 | 31663 ft | 437 kts | 302° |
| 2026-04-26 10:03 | 47.18776 | 8.78523 | 32026 ft | 433 kts | 292° |
| 2026-04-26 10:03 | 47.19862 | 8.74405 | 32393 ft | 431 kts | 289° |
| 2026-04-26 10:03 | 47.20904 | 8.70295 | 32775 ft | 429 kts | 288° |
| 2026-04-26 10:03 | 47.21945 | 8.66181 | 33120 ft | 428 kts | 288° |
| 2026-04-26 10:04 | 47.22982 | 8.62068 | 33439 ft | 428 kts | 288° |
| 2026-04-26 10:04 | 47.24014 | 8.57970 | 33783 ft | 427 kts | 288° |
| 2026-04-26 10:04 | 47.25033 | 8.53926 | 34133 ft | 426 kts | 288° |
| 2026-04-26 10:04 | 47.26063 | 8.49834 | 34231 ft | 427 kts | 288° |
| 2026-04-26 10:05 | 47.28137 | 8.41617 | 34205 ft | 429 kts | 288° |
| 2026-04-26 10:05 | 47.30227 | 8.33344 | 34207 ft | 427 kts | 288° |
| 2026-04-26 10:06 | 47.32283 | 8.25121 | 34211 ft | 429 kts | 287° |
| 2026-04-26 10:06 | 47.34327 | 8.16853 | 34212 ft | 429 kts | 287° |
| 2026-04-26 10:07 | 47.36355 | 8.08652 | 34201 ft | 429 kts | 287° |
| 2026-04-26 10:07 | 47.38391 | 8.00396 | 34203 ft | 428 kts | 287° |
| 2026-04-26 10:08 | 47.40420 | 7.92139 | 34196 ft | 428 kts | 287° |
| 2026-04-26 10:08 | 47.42451 | 7.83866 | 34218 ft | 428 kts | 287° |
| 2026-04-26 10:09 | 47.44462 | 7.75594 | 34222 ft | 428 kts | 287° |
| 2026-04-26 10:09 | 47.46430 | 7.67297 | 34232 ft | 427 kts | 283° |
| 2026-04-26 10:10 | 47.47485 | 7.58702 | 34240 ft | 425 kts | 277° |
| 2026-04-26 10:10 | 47.48387 | 7.50084 | 34236 ft | 425 kts | 277° |
| 2026-04-26 10:11 | 47.49289 | 7.41448 | 34197 ft | 426 kts | 277° |
| 2026-04-26 10:11 | 47.50188 | 7.32774 | 34198 ft | 427 kts | 277° |
| 2026-04-26 10:12 | 47.51085 | 7.24094 | 34209 ft | 427 kts | 277° |
| 2026-04-26 10:12 | 47.51969 | 7.15396 | 34199 ft | 428 kts | 277° |
| 2026-04-26 10:13 | 47.52848 | 7.06668 | 34206 ft | 429 kts | 277° |
| 2026-04-26 10:13 | 47.53728 | 6.97937 | 34209 ft | 430 kts | 277° |
| 2026-04-26 10:14 | 47.54604 | 6.89190 | 34197 ft | 430 kts | 277° |
| 2026-04-26 10:14 | 47.55467 | 6.80430 | 34202 ft | 430 kts | 277° |
| 2026-04-26 10:15 | 47.56620 | 6.71895 | 34210 ft | 432 kts | 287° |
| 2026-04-26 10:15 | 47.58954 | 6.63689 | 34202 ft | 433 kts | 292° |
| 2026-04-26 10:16 | 47.61346 | 6.55500 | 34203 ft | 433 kts | 292° |
| 2026-04-26 10:16 | 47.63725 | 6.47281 | 34212 ft | 433 kts | 292° |
| 2026-04-26 10:17 | 47.66083 | 6.39116 | 34207 ft | 434 kts | 292° |
| 2026-04-26 10:17 | 47.68467 | 6.30825 | 34206 ft | 434 kts | 291° |
| 2026-04-26 10:18 | 47.70366 | 6.22329 | 34209 ft | 434 kts | 287° |
| 2026-04-26 10:18 | 47.72171 | 6.13828 | 34199 ft | 434 kts | 287° |
| 2026-04-26 10:19 | 47.74003 | 6.05212 | 34192 ft | 435 kts | 287° |
| 2026-04-26 10:19 | 47.75810 | 5.96684 | 34194 ft | 435 kts | 287° |
| 2026-04-26 10:20 | 47.77321 | 5.89498 | 34196 ft | 435 kts | 287° |
| 2026-04-26 10:20 | 47.79410 | 5.79505 | 34211 ft | 435 kts | 287° |
| 2026-04-26 10:21 | 47.81199 | 5.70908 | 34208 ft | 435 kts | 287° |
| 2026-04-26 10:21 | 47.82976 | 5.62301 | 34213 ft | 435 kts | 287° |
| 2026-04-26 10:22 | 47.84745 | 5.53699 | 34218 ft | 435 kts | 287° |
| 2026-04-26 10:22 | 47.86526 | 5.45082 | 34203 ft | 435 kts | 288° |
| 2026-04-26 10:23 | 47.88299 | 5.36476 | 34226 ft | 435 kts | 288° |
| 2026-04-26 10:23 | 47.89932 | 5.27812 | 34233 ft | 435 kts | 281° |
| 2026-04-26 10:24 | 47.90056 | 5.18829 | 34227 ft | 437 kts | 263° |
| 2026-04-26 10:24 | 47.89185 | 5.09875 | 34218 ft | 437 kts | 263° |
| 2026-04-26 10:25 | 47.88327 | 5.00899 | 34202 ft | 437 kts | 264° |
| 2026-04-26 10:25 | 47.87461 | 4.91927 | 34208 ft | 438 kts | 263° |
| 2026-04-26 10:26 | 47.86574 | 4.82949 | 34200 ft | 439 kts | 263° |
| 2026-04-26 10:26 | 47.85677 | 4.73964 | 34200 ft | 439 kts | 263° |
| 2026-04-26 10:27 | 47.84772 | 4.64967 | 34217 ft | 440 kts | 263° |
| 2026-04-26 10:27 | 47.83871 | 4.55968 | 34216 ft | 440 kts | 264° |
| 2026-04-26 10:28 | 47.83113 | 4.48481 | 34218 ft | 440 kts | 263° |
| 2026-04-26 10:28 | 47.82189 | 4.39469 | 34219 ft | 440 kts | 263° |
| 2026-04-26 10:29 | 47.81256 | 4.30474 | 34224 ft | 440 kts | 263° |
| 2026-04-26 10:29 | 47.80322 | 4.21488 | 34231 ft | 440 kts | 263° |
| 2026-04-26 10:30 | 47.79381 | 4.12506 | 34215 ft | 440 kts | 263° |
| 2026-04-26 10:30 | 47.78433 | 4.03524 | 34218 ft | 440 kts | 263° |
| 2026-04-26 10:31 | 47.77474 | 3.94525 | 34223 ft | 440 kts | 263° |
| 2026-04-26 10:31 | 47.76500 | 3.85538 | 34230 ft | 441 kts | 263° |
| 2026-04-26 10:32 | 47.75528 | 3.76554 | 34226 ft | 440 kts | 263° |
| 2026-04-26 10:32 | 47.74796 | 3.69676 | 34193 ft | 441 kts | 264° |
| 2026-04-26 10:33 | 47.73840 | 3.60656 | 34198 ft | 442 kts | 263° |
| 2026-04-26 10:33 | 47.72822 | 3.51664 | 34208 ft | 442 kts | 263° |
| 2026-04-26 10:34 | 47.71792 | 3.42661 | 34212 ft | 442 kts | 263° |
| 2026-04-26 10:34 | 47.70785 | 3.33694 | 34206 ft | 442 kts | 263° |
| 2026-04-26 10:35 | 47.69771 | 3.24606 | 34213 ft | 442 kts | 263° |
| 2026-04-26 10:35 | 47.68759 | 3.15663 | 34215 ft | 442 kts | 263° |
| 2026-04-26 10:36 | 47.67730 | 3.06677 | 34214 ft | 442 kts | 263° |
| 2026-04-26 10:36 | 47.66694 | 2.97694 | 34215 ft | 442 kts | 263° |
| 2026-04-26 10:37 | 47.65654 | 2.88713 | 34209 ft | 441 kts | 263° |
| 2026-04-26 10:37 | 47.64606 | 2.79744 | 34213 ft | 441 kts | 263° |
| 2026-04-26 10:38 | 47.63550 | 2.70786 | 34215 ft | 441 kts | 262° |
| 2026-04-26 10:38 | 47.62482 | 2.61828 | 34215 ft | 441 kts | 262° |
| 2026-04-26 10:39 | 47.61423 | 2.53300 | 34145 ft | 443 kts | 261° |
| 2026-04-26 10:39 | 47.60117 | 2.44335 | 33741 ft | 450 kts | 260° |